createdAt,value
2023-01-23T00:00:34.416Z,0
2023-01-23T00:01:15.049Z,0
2023-01-23T00:01:55.423Z,0
2023-01-23T00:02:36.812Z,0
2023-01-23T00:05:05.657Z,0
2023-01-23T00:05:46.186Z,0
2023-01-23T00:06:27.759Z,0
2023-01-23T00:07:08.324Z,0
2023-01-23T00:09:21.044Z,0
2023-01-23T00:10:01.603Z,0
2023-01-23T00:10:42.858Z,0
2023-01-23T00:11:23.445Z,0
2023-01-23T00:14:17.042Z,0
2023-01-23T00:14:57.566Z,0
2023-01-23T00:15:38.174Z,0
2023-01-23T00:16:18.721Z,0
2023-01-23T00:19:42.006Z,0
2023-01-23T00:20:22.539Z,0
2023-01-23T00:21:03.038Z,0
2023-01-23T00:21:43.549Z,0
2023-01-23T00:22:24.063Z,0
2023-01-23T00:23:04.588Z,0
2023-01-23T00:23:45.108Z,0
2023-01-23T00:24:25.638Z,0
2023-01-23T00:25:06.145Z,0
2023-01-23T00:32:31.938Z,0
2023-01-23T00:33:12.450Z,0
2023-01-23T00:33:52.986Z,0
2023-01-23T00:34:33.501Z,0
2023-01-23T00:35:14.679Z,0
2023-01-23T00:35:55.768Z,0
2023-01-23T00:36:36.289Z,0
2023-01-23T00:44:01.976Z,0
2023-01-23T00:44:42.482Z,0
2023-01-23T00:45:22.995Z,0
2023-01-23T00:46:03.549Z,0
2023-01-23T00:46:44.269Z,0
2023-01-23T00:47:24.789Z,0
2023-01-23T00:48:05.197Z,0
2023-01-23T00:48:45.872Z,0
2023-01-23T00:49:26.427Z,0
2023-01-23T00:55:31.801Z,0
2023-01-23T00:56:12.334Z,0
2023-01-23T00:56:52.847Z,0
2023-01-23T00:57:33.395Z,0
2023-01-23T00:58:13.920Z,0
2023-01-23T00:58:54.441Z,0
2023-01-23T00:59:34.942Z,0
2023-01-23T01:00:15.465Z,0
2023-01-23T01:00:55.999Z,0
2023-01-23T01:01:36.528Z,0
2023-01-23T01:07:41.862Z,0
2023-01-23T01:08:22.458Z,0
2023-01-23T01:09:02.994Z,0
2023-01-23T01:09:43.558Z,0
2023-01-23T01:10:24.099Z,0
2023-01-23T01:11:04.629Z,0
2023-01-23T01:11:45.176Z,0
2023-01-23T01:12:25.796Z,0
2023-01-23T01:13:06.309Z,0
2023-01-23T01:16:40.464Z,0
2023-01-23T01:17:21.008Z,0
2023-01-23T01:18:02.464Z,0
2023-01-23T01:18:42.835Z,0
2023-01-23T01:20:55.943Z,0
2023-01-23T01:21:36.467Z,0
2023-01-23T01:22:16.972Z,0
2023-01-23T01:22:59.195Z,0
2023-01-23T01:25:28.978Z,0
2023-01-23T01:26:09.462Z,0
2023-01-23T01:26:49.993Z,0
2023-01-23T01:27:30.527Z,0
2023-01-23T01:31:05.652Z,0
2023-01-23T01:31:46.175Z,0
2023-01-23T01:32:26.653Z,0
2023-01-23T01:33:07.252Z,0
2023-01-23T01:37:10.285Z,0
2023-01-23T01:37:50.803Z,0
2023-01-23T01:38:31.323Z,0
2023-01-23T01:39:11.841Z,0
2023-01-23T01:39:52.371Z,0
2023-01-23T01:40:32.900Z,0
2023-01-23T01:41:13.424Z,0
2023-01-23T01:41:53.983Z,0
2023-01-23T01:42:34.537Z,0
2023-01-23T01:43:15.073Z,0
2023-01-23T01:49:20.473Z,0
2023-01-23T01:50:01.031Z,0
2023-01-23T01:50:41.551Z,0
2023-01-23T01:51:22.151Z,0
2023-01-23T01:52:02.592Z,0
2023-01-23T01:52:43.103Z,0
2023-01-23T01:53:23.635Z,0
2023-01-23T01:54:04.157Z,0
2023-01-23T01:54:44.661Z,0
2023-01-23T02:01:42.358Z,0
2023-01-23T02:02:22.917Z,0
2023-01-23T02:03:03.437Z,0
2023-01-23T02:03:44.084Z,0
2023-01-23T02:06:37.534Z,0
2023-01-23T02:07:18.053Z,0
2023-01-23T02:07:58.565Z,0
2023-01-23T02:08:39.093Z,0
2023-01-23T02:10:55.177Z,0
2023-01-23T02:11:35.721Z,0
2023-01-23T02:12:16.267Z,0
2023-01-23T02:12:56.762Z,0
2023-01-23T02:17:11.294Z,0
2023-01-23T02:17:52.413Z,0
2023-01-23T02:18:32.920Z,0
2023-01-23T02:19:13.570Z,0
2023-01-23T02:21:48.751Z,0
2023-01-23T02:22:29.263Z,0
2023-01-23T02:23:09.789Z,0
2023-01-23T02:23:50.319Z,0
2023-01-23T02:27:53.527Z,0
2023-01-23T02:28:34.055Z,0
2023-01-23T02:29:14.589Z,0
2023-01-23T02:29:55.090Z,0
2023-01-23T02:30:36.153Z,0
2023-01-23T02:31:16.753Z,0
2023-01-23T02:31:57.191Z,0
2023-01-23T02:32:37.722Z,0
2023-01-23T02:33:18.277Z,0
2023-01-23T02:40:03.633Z,0
2023-01-23T02:40:44.152Z,0
2023-01-23T02:41:24.663Z,0
2023-01-23T02:42:05.212Z,0
2023-01-23T02:42:45.788Z,0
2023-01-23T02:43:26.329Z,0
2023-01-23T02:44:06.856Z,0
2023-01-23T02:44:47.411Z,0
2023-01-23T02:45:27.996Z,0
2023-01-23T02:51:33.434Z,0
2023-01-23T02:52:13.994Z,0
2023-01-23T02:52:54.555Z,0
2023-01-23T02:53:35.096Z,0
2023-01-23T02:54:15.637Z,0
2023-01-23T02:56:54.283Z,0
2023-01-23T02:57:34.823Z,0
2023-01-23T02:58:15.361Z,0
2023-01-23T02:58:55.843Z,0
2023-01-23T03:02:59.009Z,0
2023-01-23T03:03:39.516Z,0
2023-01-23T03:04:20.006Z,0
2023-01-23T03:05:00.570Z,0
2023-01-23T03:05:41.224Z,0
2023-01-23T03:06:21.703Z,0
2023-01-23T03:07:02.236Z,0
2023-01-23T03:07:42.765Z,0
2023-01-23T03:08:23.309Z,0
2023-01-23T03:09:03.810Z,0
2023-01-23T03:14:28.967Z,0
2023-01-23T03:15:09.449Z,0
2023-01-23T03:15:49.983Z,0
2023-01-23T03:16:30.568Z,0
2023-01-23T03:17:11.173Z,0
2023-01-23T03:17:51.591Z,0
2023-01-23T03:18:33.478Z,0
2023-01-23T03:19:12.635Z,0
2023-01-23T03:19:53.211Z,0
2023-01-23T03:20:33.736Z,0
2023-01-23T03:26:39.246Z,0
2023-01-23T03:27:19.759Z,0
2023-01-23T03:28:00.275Z,0
2023-01-23T03:28:40.799Z,0
2023-01-23T03:29:22.295Z,0
2023-01-23T03:30:02.843Z,0
2023-01-23T03:30:43.355Z,0
2023-01-23T03:37:30.170Z,0
2023-01-23T03:38:10.638Z,0
2023-01-23T03:38:51.168Z,0
2023-01-23T03:39:31.669Z,0
2023-01-23T03:40:12.171Z,0
2023-01-23T03:40:52.718Z,0
2023-01-23T03:41:33.229Z,0
2023-01-23T03:42:13.732Z,0
2023-01-23T03:48:30.650Z,0
2023-01-23T03:49:12.061Z,0
2023-01-23T03:49:52.614Z,0
2023-01-23T03:50:33.178Z,0
2023-01-23T03:52:47.495Z,0
2023-01-23T03:53:27.885Z,0
2023-01-23T03:54:08.391Z,0
2023-01-23T03:54:49.583Z,0
2023-01-23T03:58:12.247Z,0
2023-01-23T03:58:52.764Z,0
2023-01-23T03:59:33.864Z,0
2023-01-23T04:00:14.356Z,0
2023-01-23T04:00:54.970Z,0
2023-01-23T04:01:35.410Z,0
2023-01-23T04:02:15.941Z,0
2023-01-23T04:02:56.514Z,0
2023-01-23T04:09:54.910Z,0
2023-01-23T04:10:35.306Z,0
2023-01-23T04:11:15.823Z,0
2023-01-23T04:11:56.324Z,0
2023-01-23T04:15:59.504Z,0
2023-01-23T04:16:40.055Z,0
2023-01-23T04:17:20.526Z,0
2023-01-23T04:19:58.968Z,0
2023-01-23T04:20:39.473Z,0
2023-01-23T04:21:20.025Z,0
2023-01-23T04:22:00.519Z,0
2023-01-23T04:26:03.635Z,0
2023-01-23T04:26:44.138Z,0
2023-01-23T04:27:24.685Z,0
2023-01-23T04:28:05.223Z,0
2023-01-23T04:28:45.734Z,0
2023-01-23T04:29:26.257Z,0
2023-01-23T04:30:07.499Z,0
2023-01-23T04:30:48.115Z,0
2023-01-23T04:31:28.591Z,0
2023-01-23T04:35:34.171Z,0
2023-01-23T04:36:14.702Z,0
2023-01-23T04:36:55.194Z,0
2023-01-23T04:37:35.718Z,0
2023-01-23T04:38:16.260Z,0
2023-01-23T04:38:56.797Z,0
2023-01-23T04:39:37.298Z,0
2023-01-23T04:40:17.993Z,0
2023-01-23T04:40:58.488Z,0
2023-01-23T04:45:54.612Z,0
2023-01-23T04:46:35.115Z,0
2023-01-23T04:47:15.655Z,0
2023-01-23T04:47:56.151Z,0
2023-01-23T04:50:12.155Z,0
2023-01-23T04:50:52.732Z,0
2023-01-23T04:51:33.206Z,0
2023-01-23T04:52:14.194Z,0
2023-01-23T04:55:36.864Z,0
2023-01-23T04:56:17.520Z,0
2023-01-23T04:56:57.915Z,0
2023-01-23T04:59:36.500Z,0
2023-01-23T05:00:17.094Z,0
2023-01-23T05:00:57.586Z,0
2023-01-23T05:01:38.697Z,0
2023-01-23T05:03:40.970Z,0
2023-01-23T05:04:21.459Z,0
2023-01-23T05:05:02.003Z,0
2023-01-23T05:05:42.546Z,0
2023-01-23T05:06:23.047Z,0
2023-01-23T05:07:03.610Z,0
2023-01-23T05:07:44.120Z,0
2023-01-23T05:10:23.157Z,0
2023-01-23T05:11:03.307Z,0
2023-01-23T05:11:43.964Z,0
2023-01-23T05:12:24.373Z,0
2023-01-23T05:15:47.716Z,0
2023-01-23T05:16:28.214Z,0
2023-01-23T05:17:09.404Z,0
2023-01-23T05:19:47.838Z,0
2023-01-23T05:20:28.355Z,0
2023-01-23T05:21:08.885Z,0
2023-01-23T05:21:49.442Z,0
2023-01-23T05:25:53.451Z,0
2023-01-23T05:26:34.053Z,0
2023-01-23T05:27:16.245Z,0
2023-01-23T05:27:56.655Z,0
2023-01-23T05:28:37.202Z,0
2023-01-23T05:32:13.933Z,0
2023-01-23T05:32:55.060Z,0
2023-01-23T05:33:42.063Z,0
2023-01-23T05:34:24.456Z,0
2023-01-23T05:36:43.761Z,0
2023-01-23T05:37:25.276Z,0
2023-01-23T05:38:05.750Z,0
2023-01-23T05:38:46.295Z,0
2023-01-23T05:41:28.385Z,0
2023-01-23T05:42:08.914Z,0
2023-01-23T05:42:49.531Z,0
2023-01-23T05:43:29.940Z,0
2023-01-23T05:44:10.470Z,0
2023-01-23T05:44:51.020Z,0
2023-01-23T05:45:31.536Z,0
2023-01-23T05:46:12.067Z,0
2023-01-23T05:46:52.589Z,0
2023-01-23T05:47:33.114Z,0
2023-01-23T05:53:49.334Z,0
2023-01-23T05:54:29.880Z,0
2023-01-23T05:55:10.372Z,0
2023-01-23T05:55:50.934Z,0
2023-01-23T05:58:09.192Z,0
2023-01-23T05:58:49.555Z,0
2023-01-23T05:59:30.107Z,0
2023-01-23T06:00:10.605Z,0
2023-01-23T06:02:50.057Z,0
2023-01-23T06:03:31.569Z,0
2023-01-23T06:04:12.936Z,0
2023-01-23T06:04:55.701Z,0
2023-01-23T06:07:28.341Z,0
2023-01-23T06:08:08.855Z,0
2023-01-23T06:08:49.366Z,0
2023-01-23T06:09:29.904Z,0
2023-01-23T06:13:33.119Z,0
2023-01-23T06:14:13.501Z,0
2023-01-23T06:14:54.770Z,0
2023-01-23T06:15:35.333Z,0
2023-01-23T06:16:16.478Z,0
2023-01-23T06:16:56.973Z,0
2023-01-23T06:17:37.564Z,0
2023-01-23T06:18:18.019Z,0
2023-01-23T06:21:11.608Z,0
2023-01-23T06:21:52.123Z,0
2023-01-23T06:22:32.629Z,0
2023-01-23T06:23:13.138Z,0
2023-01-23T06:26:36.361Z,0
2023-01-23T06:27:16.899Z,0
2023-01-23T06:27:57.434Z,0
2023-01-23T06:28:38.069Z,0
2023-01-23T06:29:18.541Z,0
2023-01-23T06:31:56.862Z,0
2023-01-23T06:32:37.322Z,0
2023-01-23T06:33:17.839Z,0
2023-01-23T06:33:58.359Z,0
2023-01-23T06:36:41.382Z,0
2023-01-23T06:37:21.891Z,0
2023-01-23T06:38:02.404Z,0
2023-01-23T06:38:42.932Z,0
2023-01-23T06:39:23.445Z,0
2023-01-23T06:40:03.966Z,0
2023-01-23T06:40:44.469Z,0
2023-01-23T06:41:24.991Z,0
2023-01-23T06:42:05.506Z,0
2023-01-23T06:42:46.138Z,0
2023-01-23T06:49:31.498Z,0
2023-01-23T06:50:12.016Z,0
2023-01-23T06:50:52.549Z,0
2023-01-23T06:51:33.052Z,0
2023-01-23T06:52:13.574Z,0
2023-01-23T06:52:54.096Z,0
2023-01-23T06:53:34.630Z,0
2023-01-23T06:54:15.144Z,0
2023-01-23T06:54:55.653Z,0
2023-01-23T06:55:36.174Z,0
2023-01-23T07:01:01.751Z,0
2023-01-23T07:01:42.396Z,0
2023-01-23T07:02:22.787Z,0
2023-01-23T07:03:03.335Z,0
2023-01-23T07:03:43.832Z,0
2023-01-23T07:04:24.345Z,0
2023-01-23T07:05:04.903Z,0
2023-01-23T07:05:45.457Z,0
2023-01-23T07:06:25.951Z,0
2023-01-23T07:13:11.801Z,0
2023-01-23T07:13:52.331Z,0
2023-01-23T07:14:33.596Z,0
2023-01-23T07:15:14.211Z,0
2023-01-23T07:15:54.650Z,0
2023-01-23T07:16:35.133Z,0
2023-01-23T07:17:15.651Z,5
2023-01-23T07:24:01.612Z,5
2023-01-23T07:24:42.111Z,5
2023-01-23T07:25:22.660Z,5
2023-01-23T07:26:03.255Z,10
2023-01-23T07:26:43.785Z,10
2023-01-23T07:27:24.314Z,10
2023-01-23T07:28:04.840Z,10
2023-01-23T07:28:45.358Z,10
2023-01-23T07:29:25.889Z,10
2023-01-23T07:30:06.442Z,10
2023-01-23T07:34:11.510Z,15
2023-01-23T07:34:52.020Z,15
2023-01-23T07:35:32.546Z,15
2023-01-23T07:36:13.050Z,15
2023-01-23T07:36:54.560Z,15
2023-01-23T07:37:35.083Z,15
2023-01-23T07:38:15.608Z,20
2023-01-23T07:40:55.122Z,20
2023-01-23T07:41:36.584Z,20
2023-01-23T07:42:17.099Z,20
2023-01-23T07:42:57.634Z,20
2023-01-23T07:44:59.178Z,25
2023-01-23T07:45:39.749Z,25
2023-01-23T07:46:20.403Z,30
2023-01-23T07:47:00.860Z,30
2023-01-23T07:50:42.516Z,35
2023-01-23T07:51:23.117Z,35
2023-01-23T07:52:03.557Z,35
2023-01-23T07:52:44.070Z,40
2023-01-23T07:56:58.761Z,45
2023-01-23T07:57:39.844Z,45
2023-01-23T07:58:20.351Z,50
2023-01-23T07:59:01.641Z,50
2023-01-23T08:01:43.873Z,50
2023-01-23T08:02:25.014Z,55
2023-01-23T08:03:06.410Z,55
2023-01-23T08:03:46.936Z,55
2023-01-23T08:04:28.021Z,55
2023-01-23T08:10:33.359Z,55
2023-01-23T08:11:13.891Z,55
2023-01-23T08:11:54.400Z,55
2023-01-23T08:12:34.916Z,55
2023-01-23T08:13:15.465Z,60
2023-01-23T08:13:56.161Z,60
2023-01-23T08:14:36.659Z,60
2023-01-23T08:15:17.189Z,65
2023-01-23T08:15:57.679Z,65
2023-01-23T08:16:38.240Z,65
2023-01-23T08:22:55.136Z,70
2023-01-23T08:23:35.697Z,70
2023-01-23T08:24:16.236Z,75
2023-01-23T08:24:56.784Z,75
2023-01-23T08:28:19.461Z,80
2023-01-23T08:29:00.030Z,80
2023-01-23T08:31:38.557Z,85
2023-01-23T08:32:19.088Z,80
2023-01-23T08:32:59.754Z,80
2023-01-23T08:33:40.177Z,80
2023-01-23T08:36:23.254Z,90
2023-01-23T08:37:03.783Z,90
2023-01-23T08:37:44.339Z,95
2023-01-23T08:38:24.872Z,95
2023-01-23T08:39:05.407Z,95
2023-01-23T08:39:46.605Z,95
2023-01-23T08:40:27.114Z,95
2023-01-23T08:41:07.660Z,95
2023-01-23T08:47:13.443Z,85
2023-01-23T08:47:54.669Z,85
2023-01-23T08:48:35.339Z,80
2023-01-23T08:49:16.263Z,80
2023-01-23T08:49:56.771Z,75
2023-01-23T08:50:37.355Z,75
2023-01-23T08:51:17.915Z,75
2023-01-23T08:55:14.260Z,80
2023-01-23T08:55:55.776Z,80
2023-01-23T08:56:36.293Z,80
2023-01-23T08:57:16.887Z,80
2023-01-23T08:59:19.415Z,85
2023-01-23T08:59:59.987Z,85
2023-01-23T09:00:40.657Z,85
2023-01-23T09:01:21.116Z,85
2023-01-23T09:02:01.658Z,85
2023-01-23T09:02:43.082Z,85
2023-01-23T09:03:23.743Z,85
2023-01-23T09:09:40.887Z,100
2023-01-23T09:10:21.771Z,105
2023-01-23T09:11:01.985Z,105
2023-01-23T09:11:44.313Z,105
2023-01-23T09:14:18.378Z,130
2023-01-23T09:15:00.569Z,135
2023-01-23T09:15:41.107Z,140
2023-01-23T09:16:21.627Z,140
2023-01-23T09:18:23.184Z,135
2023-01-23T09:19:03.769Z,135
2023-01-23T09:19:44.353Z,135
2023-01-23T09:20:24.782Z,140
2023-01-23T09:21:07.277Z,125
2023-01-23T09:21:45.843Z,120
2023-01-23T09:22:26.366Z,125
2023-01-23T09:23:06.871Z,125
2023-01-23T09:23:47.385Z,110
2023-01-23T09:24:27.894Z,105
2023-01-23T09:27:36.796Z,80
2023-01-23T09:28:17.304Z,80
2023-01-23T09:28:57.901Z,75
2023-01-23T09:29:38.450Z,75
2023-01-23T09:31:56.629Z,70
2023-01-23T09:32:37.156Z,65
2023-01-23T09:33:17.670Z,65
2023-01-23T09:33:58.236Z,60
2023-01-23T09:37:21.376Z,65
2023-01-23T09:38:01.989Z,70
2023-01-23T09:38:42.451Z,65
2023-01-23T09:39:22.969Z,70
2023-01-23T09:40:03.547Z,70
2023-01-23T09:40:44.059Z,65
2023-01-23T09:41:25.195Z,65
2023-01-23T09:42:08.177Z,65
2023-01-23T09:44:44.158Z,60
2023-01-23T09:45:24.685Z,55
2023-01-23T09:46:05.255Z,50
2023-01-23T09:46:45.712Z,50
2023-01-23T09:50:49.837Z,70
2023-01-23T09:51:30.186Z,75
2023-01-23T09:52:10.692Z,75
2023-01-23T09:52:51.203Z,75
2023-01-23T09:53:31.740Z,80
2023-01-23T09:54:12.301Z,85
2023-01-23T09:54:53.652Z,90
2023-01-23T10:02:31.748Z,105
2023-01-23T10:03:12.247Z,105
2023-01-23T10:03:52.756Z,100
2023-01-23T10:04:33.259Z,105
2023-01-23T10:09:28.143Z,115
2023-01-23T10:10:08.673Z,110
2023-01-23T10:10:49.166Z,110
2023-01-23T10:11:29.684Z,110
2023-01-23T10:14:15.001Z,110
2023-01-23T10:14:54.077Z,120
2023-01-23T10:15:35.185Z,120
2023-01-23T10:16:15.840Z,120
2023-01-23T10:16:57.536Z,125
2023-01-23T10:22:08.779Z,160
2023-01-23T10:22:49.185Z,160
2023-01-23T10:23:29.730Z,165
2023-01-23T10:24:10.304Z,160
2023-01-23T10:26:46.097Z,155
2023-01-23T10:27:26.655Z,155
2023-01-23T10:28:08.193Z,165
2023-01-23T10:28:47.773Z,160
2023-01-23T10:31:00.904Z,135
2023-01-23T10:31:42.243Z,145
2023-01-23T10:32:22.741Z,145
2023-01-23T10:33:04.235Z,145
2023-01-23T10:35:17.235Z,125
2023-01-23T10:35:57.725Z,130
2023-01-23T10:36:47.725Z,145
2023-01-23T10:37:19.486Z,145
2023-01-23T10:40:00.315Z,135
2023-01-23T10:40:40.870Z,125
2023-01-23T10:41:23.268Z,125
2023-01-23T10:42:03.184Z,135
2023-01-23T10:45:17.083Z,145
2023-01-23T10:45:57.614Z,145
2023-01-23T10:46:38.314Z,135
2023-01-23T10:47:20.410Z,120
2023-01-23T10:48:06.265Z,110
2023-01-23T10:50:43.102Z,100
2023-01-23T10:51:23.739Z,100
2023-01-23T10:52:05.603Z,110
2023-01-23T10:52:46.374Z,120
2023-01-23T10:53:30.697Z,125
2023-01-23T10:54:58.154Z,120
2023-01-23T10:55:39.757Z,115
2023-01-23T10:57:10.641Z,105
2023-01-23T10:59:19.668Z,135
2023-01-23T11:00:05.724Z,140
2023-01-23T11:00:49.726Z,135
2023-01-23T11:02:17.437Z,115
2023-01-23T11:02:58.571Z,110
2023-01-23T11:03:39.247Z,120
2023-01-23T11:04:21.655Z,125
2023-01-23T11:05:05.609Z,130
2023-01-23T11:05:53.280Z,140
2023-01-23T11:06:35.295Z,140
2023-01-23T11:07:17.311Z,135
2023-01-23T11:08:46.854Z,130
2023-01-23T11:09:29.152Z,130
2023-01-23T11:11:37.255Z,105
2023-01-23T11:12:19.680Z,95
2023-01-23T11:13:46.112Z,85
2023-01-23T11:14:26.640Z,80
2023-01-23T11:15:08.898Z,80
2023-01-23T11:17:22.055Z,90
2023-01-23T11:18:06.295Z,95
2023-01-23T11:18:48.678Z,100
2023-01-23T11:20:18.594Z,90
2023-01-23T11:22:27.582Z,125
2023-01-23T11:25:30.792Z,155
2023-01-23T11:26:11.352Z,165
2023-01-23T11:26:51.900Z,180
2023-01-23T11:27:32.503Z,180
2023-01-23T11:31:35.973Z,160
2023-01-23T11:32:16.521Z,165
2023-01-23T11:32:56.905Z,175
2023-01-23T11:33:37.437Z,190
2023-01-23T11:35:55.765Z,175
2023-01-23T11:36:36.375Z,175
2023-01-23T11:37:16.918Z,180
2023-01-23T11:37:57.518Z,175
2023-01-23T11:40:15.799Z,165
2023-01-23T11:40:56.855Z,165
2023-01-23T11:41:37.347Z,165
2023-01-23T11:42:17.908Z,175
2023-01-23T11:45:52.257Z,195
2023-01-23T11:46:32.672Z,210
2023-01-23T11:47:13.265Z,210
2023-01-23T11:47:53.769Z,205
2023-01-23T11:51:57.232Z,260
2023-01-23T11:52:37.701Z,260
2023-01-23T11:53:19.050Z,255
2023-01-23T11:53:59.590Z,250
2023-01-23T11:54:40.039Z,240
2023-01-23T11:55:20.872Z,225
2023-01-23T11:56:01.057Z,220
2023-01-23T11:56:41.614Z,230
2023-01-23T12:01:27.227Z,225
2023-01-23T12:02:07.967Z,220
2023-01-23T12:02:48.610Z,220
2023-01-23T12:03:29.205Z,220
2023-01-23T12:04:09.792Z,220
2023-01-23T12:04:50.344Z,220
2023-01-23T12:05:30.822Z,225
2023-01-23T12:06:19.884Z,225
2023-01-23T12:12:17.180Z,275
2023-01-23T12:12:57.767Z,270
2023-01-23T12:13:38.285Z,260
2023-01-23T12:14:19.510Z,250
2023-01-23T12:15:00.083Z,255
2023-01-23T12:15:40.648Z,270
2023-01-23T12:16:21.197Z,275
2023-01-23T12:22:13.268Z,300
2023-01-23T12:22:53.806Z,290
2023-01-23T12:23:34.451Z,275
2023-01-23T12:24:14.912Z,270
2023-01-23T12:27:38.291Z,230
2023-01-23T12:28:18.870Z,220
2023-01-23T12:28:59.385Z,200
2023-01-23T12:29:40.766Z,170
2023-01-23T12:30:21.544Z,165
2023-01-23T12:31:03.417Z,155
2023-01-23T12:31:42.483Z,140
2023-01-23T12:32:22.948Z,140
2023-01-23T12:38:28.123Z,160
2023-01-23T12:39:08.645Z,155
2023-01-23T12:39:49.151Z,150
2023-01-23T12:40:29.688Z,150
2023-01-23T12:41:10.271Z,150
2023-01-23T12:41:50.921Z,150
2023-01-23T12:44:29.295Z,175
2023-01-23T12:45:10.479Z,200
2023-01-23T12:45:51.024Z,215
2023-01-23T12:46:31.578Z,190
2023-01-23T12:49:14.267Z,130
2023-01-23T12:49:54.770Z,105
2023-01-23T12:50:35.315Z,105
2023-01-23T12:51:15.851Z,105
2023-01-23T12:51:56.434Z,110
2023-01-23T12:52:36.885Z,120
2023-01-23T12:53:18.877Z,120
2023-01-23T12:58:56.851Z,110
2023-01-23T12:59:38.255Z,110
2023-01-23T13:00:21.061Z,115
2023-01-23T13:01:01.292Z,125
2023-01-23T13:04:19.056Z,100
2023-01-23T13:04:59.569Z,105
2023-01-23T13:05:40.091Z,110
2023-01-23T13:06:21.558Z,120
2023-01-23T13:08:24.331Z,170
2023-01-23T13:09:12.893Z,175
2023-01-23T13:09:45.155Z,195
2023-01-23T13:10:25.763Z,195
2023-01-23T13:11:06.322Z,200
2023-01-23T13:11:46.840Z,190
2023-01-23T13:12:27.400Z,190
2023-01-23T13:13:07.938Z,200
2023-01-23T13:13:48.489Z,200
2023-01-23T13:18:44.683Z,145
2023-01-23T13:19:25.261Z,155
2023-01-23T13:20:05.761Z,145
2023-01-23T13:20:46.321Z,135
2023-01-23T13:23:30.422Z,95
2023-01-23T13:24:10.820Z,90
2023-01-23T13:24:51.341Z,90
2023-01-23T13:25:31.843Z,90
2023-01-23T13:26:12.384Z,90
2023-01-23T13:26:52.863Z,90
2023-01-23T13:27:34.026Z,100
2023-01-23T13:32:29.372Z,105
2023-01-23T13:33:09.768Z,120
2023-01-23T13:33:51.496Z,130
2023-01-23T13:34:30.871Z,150
2023-01-23T13:37:54.314Z,150
2023-01-23T13:38:34.837Z,160
2023-01-23T13:39:15.389Z,160
2023-01-23T13:40:05.494Z,160
2023-01-23T13:40:36.501Z,155
2023-01-23T13:41:17.054Z,150
2023-01-23T13:41:57.558Z,155
2023-01-23T13:42:38.111Z,160
2023-01-23T13:48:14.787Z,135
2023-01-23T13:48:55.287Z,135
2023-01-23T13:49:35.801Z,135
2023-01-23T13:50:16.349Z,140
2023-01-23T13:53:39.909Z,135
2023-01-23T13:54:20.464Z,130
2023-01-23T13:55:01.012Z,130
2023-01-23T13:55:41.514Z,125
2023-01-23T13:56:22.042Z,120
2023-01-23T13:57:02.571Z,115
2023-01-23T13:57:43.117Z,110
2023-01-23T14:00:22.175Z,105
2023-01-23T14:01:02.538Z,105
2023-01-23T14:01:43.035Z,115
2023-01-23T14:02:23.570Z,120
2023-01-23T14:06:26.791Z,95
2023-01-23T14:07:07.347Z,90
2023-01-23T14:09:46.728Z,80
2023-01-23T14:10:27.264Z,75
2023-01-23T14:11:07.790Z,75
2023-01-23T14:11:48.326Z,75
2023-01-23T14:14:30.481Z,80
2023-01-23T14:15:11.507Z,80
2023-01-23T14:15:52.271Z,80
2023-01-23T14:16:32.735Z,85
2023-01-23T14:17:13.636Z,80
2023-01-23T14:17:54.171Z,75
2023-01-23T14:18:34.670Z,80
2023-01-23T14:19:15.235Z,85
2023-01-23T14:23:31.569Z,75
2023-01-23T14:24:12.823Z,80
2023-01-23T14:24:53.363Z,85
2023-01-23T14:25:33.889Z,85
2023-01-23T14:27:47.969Z,85
2023-01-23T14:28:16.090Z,85
2023-01-23T14:28:56.617Z,85
2023-01-23T14:29:37.142Z,85
2023-01-23T14:30:17.678Z,90
2023-01-23T14:30:58.454Z,90
2023-01-23T14:31:38.825Z,80
2023-01-23T14:32:20.328Z,80
2023-01-23T14:32:59.844Z,85
2023-01-23T14:40:28.432Z,75
2023-01-23T14:41:06.140Z,75
2023-01-23T14:41:47.619Z,75
2023-01-23T14:42:27.173Z,80
2023-01-23T14:43:07.771Z,90
2023-01-23T14:43:48.284Z,85
2023-01-23T14:44:28.823Z,80
2023-01-23T14:45:09.319Z,80
2023-01-23T14:45:49.899Z,80
2023-01-23T14:52:46.707Z,80
2023-01-23T14:53:27.200Z,75
2023-01-23T14:54:10.374Z,80
2023-01-23T14:54:53.699Z,80
2023-01-23T14:58:23.012Z,80
2023-01-23T14:59:03.510Z,80
2023-01-23T14:59:44.059Z,75
2023-01-23T15:00:24.557Z,70
2023-01-23T15:04:27.874Z,65
2023-01-23T15:05:08.315Z,65
2023-01-23T15:05:48.843Z,60
2023-01-23T15:06:29.393Z,55
2023-01-23T15:07:09.929Z,55
2023-01-23T15:07:50.443Z,55
2023-01-23T15:08:30.961Z,50
2023-01-23T15:09:11.476Z,50
2023-01-23T15:13:38.390Z,40
2023-01-23T15:14:18.922Z,40
2023-01-23T15:14:59.450Z,40
2023-01-23T15:15:40.003Z,45
2023-01-23T15:19:02.698Z,45
2023-01-23T15:19:43.199Z,45
2023-01-23T15:20:23.834Z,40
2023-01-23T15:21:04.368Z,40
2023-01-23T15:21:44.879Z,45
2023-01-23T15:22:25.413Z,45
2023-01-23T15:23:06.089Z,45
2023-01-23T15:23:46.492Z,40
2023-01-23T15:24:27.006Z,40
2023-01-23T15:27:20.567Z,35
2023-01-23T15:28:01.100Z,35
2023-01-23T15:28:41.619Z,30
2023-01-23T15:29:22.184Z,30
2023-01-23T15:36:39.296Z,15
2023-01-23T15:37:19.812Z,15
2023-01-23T15:38:00.312Z,15
2023-01-23T15:38:40.859Z,15
2023-01-23T15:42:44.055Z,10
2023-01-23T15:43:24.556Z,10
2023-01-23T15:44:05.108Z,10
2023-01-23T15:44:45.614Z,10
2023-01-23T15:45:26.121Z,10
2023-01-23T15:46:06.698Z,10
2023-01-23T15:46:47.355Z,10
2023-01-23T15:47:27.947Z,10
2023-01-23T15:48:08.359Z,10
2023-01-23T15:48:48.867Z,5
2023-01-23T15:57:30.273Z,5
2023-01-23T15:58:10.793Z,0
2023-01-23T15:58:51.366Z,0
2023-01-23T15:59:31.899Z,0
2023-01-23T16:02:28.746Z,0
2023-01-23T16:02:56.971Z,0
2023-01-23T16:03:35.354Z,0
2023-01-23T16:04:17.367Z,0
2023-01-23T16:04:57.888Z,0
2023-01-23T16:05:38.406Z,0
2023-01-23T16:06:18.961Z,0
2023-01-23T16:15:00.165Z,0
2023-01-23T16:15:40.726Z,0
2023-01-23T16:16:21.317Z,0
2023-01-23T16:17:11.615Z,0
2023-01-23T16:21:05.075Z,0
2023-01-23T16:21:47.653Z,0
2023-01-23T16:22:26.201Z,0
2023-01-23T16:23:14.315Z,0
2023-01-23T16:23:47.992Z,0
2023-01-23T16:24:27.853Z,0
2023-01-23T16:25:08.362Z,0
2023-01-23T16:25:49.375Z,0
2023-01-23T16:26:29.454Z,0
2023-01-23T16:32:29.050Z,0
2023-01-23T16:33:09.556Z,0
2023-01-23T16:33:50.163Z,0
2023-01-23T16:34:30.549Z,0
2023-01-23T16:38:33.763Z,0
2023-01-23T16:39:14.486Z,0
2023-01-23T16:39:55.040Z,0
2023-01-23T16:40:35.597Z,0
2023-01-23T16:41:16.074Z,0
2023-01-23T16:41:56.609Z,0
2023-01-23T16:42:37.142Z,0
2023-01-23T16:43:17.671Z,0
2023-01-23T16:43:58.185Z,0
2023-01-23T16:50:43.726Z,0
2023-01-23T16:51:24.315Z,0
2023-01-23T16:52:04.797Z,0
2023-01-23T16:52:45.365Z,0
2023-01-23T16:53:25.865Z,0
2023-01-23T16:54:18.237Z,0
2023-01-23T16:54:46.930Z,0
2023-01-23T16:55:27.467Z,0
2023-01-23T16:56:07.983Z,0
2023-01-23T16:56:48.515Z,0
2023-01-23T17:03:33.774Z,0
2023-01-23T17:04:14.319Z,0
2023-01-23T17:04:54.942Z,0
2023-01-23T17:05:35.334Z,0
2023-01-23T17:06:15.900Z,0
2023-01-23T17:06:56.384Z,0
2023-01-23T17:07:36.897Z,0
2023-01-23T17:08:17.503Z,0
2023-01-23T17:08:57.938Z,0
2023-01-23T17:09:38.444Z,0
2023-01-23T17:13:53.059Z,0
2023-01-23T17:14:33.553Z,0
2023-01-23T17:15:14.091Z,0
2023-01-23T17:15:54.609Z,0
2023-01-23T17:18:49.250Z,0
2023-01-23T17:19:29.802Z,0
2023-01-23T17:20:10.300Z,0
2023-01-23T17:20:50.806Z,0
2023-01-23T17:22:13.251Z,0
2023-01-23T17:22:54.260Z,0
2023-01-23T17:23:35.420Z,0
2023-01-23T17:24:15.964Z,0
2023-01-23T17:24:56.403Z,0
2023-01-23T17:25:42.896Z,0
2023-01-23T17:26:17.423Z,0
2023-01-23T17:29:05.306Z,0
2023-01-23T17:29:48.307Z,0
2023-01-23T17:31:13.898Z,0
2023-01-23T17:31:56.890Z,0
2023-01-23T17:35:12.785Z,0
2023-01-23T17:35:53.207Z,0
2023-01-23T17:36:33.758Z,0
2023-01-23T17:39:12.249Z,0
2023-01-23T17:39:52.813Z,0
2023-01-23T17:40:33.881Z,0
2023-01-23T17:41:13.893Z,0
2023-01-23T17:44:07.436Z,0
2023-01-23T17:44:47.991Z,0
2023-01-23T17:45:28.608Z,0
2023-01-23T17:46:09.282Z,0
2023-01-23T17:48:27.877Z,0
2023-01-23T17:49:08.389Z,0
2023-01-23T17:49:48.938Z,0
2023-01-23T17:50:29.552Z,0
2023-01-23T17:53:52.801Z,0
2023-01-23T17:56:31.242Z,0
2023-01-23T17:57:11.767Z,0
2023-01-23T17:57:52.275Z,0
2023-01-23T17:58:33.648Z,0
2023-01-23T18:02:08.476Z,0
2023-01-23T18:02:48.986Z,0
2023-01-23T18:03:30.451Z,0
2023-01-23T18:04:11.009Z,0
2023-01-23T18:06:53.161Z,0
2023-01-23T18:07:37.808Z,0
2023-01-23T18:08:14.264Z,0
2023-01-23T18:08:54.790Z,0
2023-01-23T18:09:35.308Z,0
2023-01-23T18:10:15.824Z,0